Terminal Aerodrome Forecast
Issued by NWS

Home | Current Version | Previous Version | Text Only | Print | Product List | Glossary On
Versions: 1 2 3 4 5 6 7 8 9 10 11 12 13 14 15 16 17 18 19
000
FTAK31 PAFA 240541
TAFAFA
TAF
PAFA 240541Z 2406/2512 VRB05KT P6SM -SHRA BKN060 BKN080 BKN200
     FM241900 20006KT P6SM -SHRA BKN035 OVC050
     FM242300 22006KT P6SM -SHRA VCTS BKN035CB OVC050
     FM251000 04005KT P6SM -SHRA SCT035 BKN050 OVC100=

USA.gov is the U.S. government's official web portal to all federal, state and local government web resources and services.